Time,TemperatureF,DewpointF,PressureIn,WindDirection,WindDirectionDegrees,WindSpeedMPH,WindSpeedGustMPH,Humidity,HourlyPrecipIn,Conditions,Clouds,dailyrainin,SolarRadiationWatts/m^2,SoftwareType,DateUTC
2013-01-23 00:03:00,12.0,2.0,-100.00,SE,126,1.0,3.0,64,0.00,,,0.00,0.000000,,2013-01-23 05:03:00,
2013-01-23 00:12:00,12.0,2.0,-100.00,SE,126,1.0,3.0,64,0.00,,,0.00,0.000000,,2013-01-23 05:12:00,
2013-01-23 00:33:00,13.0,4.0,-100.00,SSE,154,1.0,2.0,67,0.00,,,0.00,0.000000,,2013-01-23 05:33:00,
2013-01-23 00:43:00,13.0,4.0,-100.00,SSE,154,1.0,2.0,67,0.00,,,0.00,0.000000,,2013-01-23 05:43:00,
2013-01-23 00:53:00,13.0,4.0,-100.00,SSE,154,1.0,2.0,67,0.00,,,0.00,0.000000,,2013-01-23 05:53:00,
2013-01-23 01:03:00,13.0,4.0,-100.00,SSE,154,1.0,2.0,67,0.00,,,0.00,0.000000,,2013-01-23 06:03:00,
2013-01-23 01:13:00,13.0,4.0,-100.00,SSE,154,1.0,2.0,67,0.00,,,0.00,0.000000,,2013-01-23 06:13:00,
2013-01-23 01:43:00,15.0,4.0,-100.00,ENE,64,1.0,3.0,62,0.00,,,0.00,0.000000,,2013-01-23 06:43:00,
2013-01-23 01:53:00,15.0,4.0,-100.00,ENE,64,1.0,3.0,62,0.00,,,0.00,0.000000,,2013-01-23 06:53:00,
2013-01-23 02:02:00,15.0,4.0,-100.00,ENE,64,1.0,3.0,62,0.00,,,0.00,0.000000,,2013-01-23 07:02:00,
2013-01-23 02:13:00,15.0,4.0,-100.00,ENE,64,1.0,3.0,62,0.00,,,0.00,0.000000,,2013-01-23 07:13:00,
2013-01-23 02:33:00,16.0,0.0,-100.00,ESE,104,1.0,4.0,48,0.00,,,0.00,0.000000,,2013-01-23 07:33:00,
2013-01-23 02:43:00,16.0,0.0,-100.00,ESE,104,1.0,4.0,48,0.00,,,0.00,0.000000,,2013-01-23 07:43:00,
2013-01-23 02:53:00,16.0,0.0,-100.00,ESE,104,1.0,4.0,48,0.00,,,0.00,0.000000,,2013-01-23 07:53:00,
2013-01-23 03:02:00,16.0,0.0,-100.00,ESE,104,1.0,4.0,48,0.00,,,0.00,0.000000,,2013-01-23 08:02:00,
2013-01-23 03:13:00,16.0,0.0,-100.00,ESE,104,1.0,4.0,48,0.00,,,0.00,0.000000,,2013-01-23 08:13:00,
2013-01-23 03:43:00,14.0,0.0,-100.00,East,84,2.0,4.0,53,0.00,,,0.00,0.000000,,2013-01-23 08:43:00,
2013-01-23 03:53:00,14.0,0.0,-100.00,East,84,2.0,4.0,53,0.00,,,0.00,0.000000,,2013-01-23 08:53:00,
2013-01-23 04:03:00,14.0,0.0,-100.00,East,84,2.0,4.0,53,0.00,,,0.00,0.000000,,2013-01-23 09:03:00,
2013-01-23 04:12:00,14.0,0.0,-100.00,East,84,2.0,4.0,53,0.00,,,0.00,0.000000,,2013-01-23 09:12:00,
2013-01-23 04:43:00,12.0,0.0,-100.00,East,100,1.0,2.0,59,0.00,,,0.00,0.000000,,2013-01-23 09:43:00,
2013-01-23 04:53:00,12.0,0.0,-100.00,East,100,1.0,2.0,59,0.00,,,0.00,0.000000,,2013-01-23 09:53:00,
2013-01-23 05:03:00,12.0,0.0,-100.00,East,100,1.0,2.0,59,0.00,,,0.00,0.000000,,2013-01-23 10:03:00,
2013-01-23 05:12:00,12.0,0.0,-100.00,East,100,1.0,2.0,59,0.00,,,0.00,0.000000,,2013-01-23 10:12:00,
2013-01-23 05:33:00,11.0,2.0,-100.00,SE,146,1.0,2.0,65,0.00,,,0.00,0.000000,,2013-01-23 10:33:00,
2013-01-23 05:43:00,11.0,2.0,-100.00,SE,146,1.0,2.0,65,0.00,,,0.00,0.000000,,2013-01-23 10:43:00,
2013-01-23 05:53:00,11.0,2.0,-100.00,SE,146,1.0,2.0,65,0.00,,,0.00,0.000000,,2013-01-23 10:53:00,
2013-01-23 06:03:00,11.0,2.0,-100.00,SE,146,1.0,2.0,65,0.00,,,0.00,0.000000,,2013-01-23 11:03:00,
2013-01-23 06:12:00,11.0,2.0,-100.00,SE,146,1.0,2.0,65,0.00,,,0.00,0.000000,,2013-01-23 11:12:00,
2013-01-23 06:34:00,11.0,3.0,-100.00,East,87,1.0,2.0,68,0.00,,,0.00,0.000000,,2013-01-23 11:34:00,
2013-01-23 06:43:00,11.0,3.0,-100.00,East,87,1.0,2.0,68,0.00,,,0.00,0.000000,,2013-01-23 11:43:00,
2013-01-23 06:53:00,11.0,3.0,-100.00,East,87,1.0,2.0,68,0.00,,,0.00,0.000000,,2013-01-23 11:53:00,
2013-01-23 07:03:00,11.0,3.0,-100.00,East,87,1.0,2.0,68,0.00,,,0.00,0.000000,,2013-01-23 12:03:00,
2013-01-23 07:13:00,11.0,3.0,-100.00,East,87,1.0,2.0,68,0.00,,,0.00,0.000000,,2013-01-23 12:13:00,
2013-01-23 07:33:00,10.0,3.0,-100.00,ESE,105,1.0,4.0,72,0.00,,,0.00,0.000000,,2013-01-23 12:33:00,
2013-01-23 07:43:00,10.0,3.0,-100.00,ESE,105,1.0,4.0,72,0.00,,,0.00,0.000000,,2013-01-23 12:43:00,
2013-01-23 07:53:00,10.0,3.0,-100.00,ESE,105,1.0,4.0,72,0.00,,,0.00,0.000000,,2013-01-23 12:53:00,
2013-01-23 08:04:00,10.0,3.0,-100.00,ESE,105,1.0,4.0,72,0.00,,,0.00,0.000000,,2013-01-23 13:04:00,
2013-01-23 08:13:00,10.0,3.0,-100.00,ESE,105,1.0,4.0,72,0.00,,,0.00,0.000000,,2013-01-23 13:13:00,
2013-01-23 08:34:00,10.0,3.0,-100.00,East,95,1.0,3.0,74,0.00,,,0.00,7.000000,,2013-01-23 13:34:00,
2013-01-23 08:43:00,10.0,3.0,-100.00,East,95,1.0,3.0,74,0.00,,,0.00,7.000000,,2013-01-23 13:43:00,
2013-01-23 08:53:00,10.0,3.0,-100.00,East,95,1.0,3.0,74,0.00,,,0.00,7.000000,,2013-01-23 13:53:00,
2013-01-23 09:03:00,10.0,3.0,-100.00,East,95,1.0,3.0,74,0.00,,,0.00,7.000000,,2013-01-23 14:03:00,
2013-01-23 09:12:00,10.0,3.0,-100.00,East,95,1.0,3.0,74,0.00,,,0.00,7.000000,,2013-01-23 14:12:00,
2013-01-23 09:43:00,16.0,7.0,-100.00,ENE,72,3.0,5.0,67,0.00,,,0.00,43.000000,,2013-01-23 14:43:00,
2013-01-23 09:53:00,16.0,7.0,-100.00,ENE,72,3.0,5.0,67,0.00,,,0.00,43.000000,,2013-01-23 14:53:00,
2013-01-23 10:03:00,16.0,7.0,-100.00,ENE,72,3.0,5.0,67,0.00,,,0.00,43.000000,,2013-01-23 15:03:00,
2013-01-23 10:13:00,16.0,7.0,-100.00,ENE,72,3.0,5.0,67,0.00,,,0.00,43.000000,,2013-01-23 15:13:00,
2013-01-23 10:33:00,21.0,1.0,-100.00,WNW,288,4.0,10.0,40,0.00,,,0.00,63.000000,,2013-01-23 15:33:00,
2013-01-23 10:43:00,21.0,1.0,-100.00,WNW,288,4.0,10.0,40,0.00,,,0.00,63.000000,,2013-01-23 15:43:00,
2013-01-23 10:53:00,21.0,1.0,-100.00,WNW,288,4.0,10.0,40,0.00,,,0.00,63.000000,,2013-01-23 15:53:00,
2013-01-23 11:03:00,21.0,1.0,-100.00,WNW,288,4.0,10.0,40,0.00,,,0.00,63.000000,,2013-01-23 16:03:00,
2013-01-23 11:12:00,21.0,1.0,-100.00,WNW,288,4.0,10.0,40,0.00,,,0.00,63.000000,,2013-01-23 16:12:00,
2013-01-23 11:43:00,23.0,0.0,-100.00,West,265,7.0,12.0,36,0.00,,,0.00,188.000000,,2013-01-23 16:43:00,
2013-01-23 11:53:00,23.0,0.0,-100.00,West,265,7.0,12.0,36,0.00,,,0.00,188.000000,,2013-01-23 16:53:00,
2013-01-23 12:03:00,23.0,0.0,-100.00,West,265,7.0,12.0,36,0.00,,,0.00,188.000000,,2013-01-23 17:03:00,
2013-01-23 12:12:00,23.0,0.0,-100.00,West,265,7.0,12.0,36,0.00,,,0.00,188.000000,,2013-01-23 17:12:00,
2013-01-23 12:43:00,25.0,4.0,-100.00,West,277,6.0,15.0,40,0.00,,,0.00,208.000000,,2013-01-23 17:43:00,
2013-01-23 12:53:00,25.0,4.0,-100.00,West,277,6.0,15.0,40,0.00,,,0.00,208.000000,,2013-01-23 17:53:00,
2013-01-23 13:04:00,25.0,4.0,-100.00,West,277,6.0,15.0,40,0.00,,,0.00,208.000000,,2013-01-23 18:04:00,
2013-01-23 13:12:00,25.0,4.0,-100.00,West,277,6.0,15.0,40,0.00,,,0.00,208.000000,,2013-01-23 18:12:00,
2013-01-23 13:44:00,26.0,6.0,-100.00,West,277,5.0,12.0,41,0.00,,,0.00,147.000000,,2013-01-23 18:44:00,
2013-01-23 13:53:00,26.0,6.0,-100.00,West,277,5.0,12.0,41,0.00,,,0.00,147.000000,,2013-01-23 18:53:00,
2013-01-23 14:03:00,26.0,6.0,-100.00,West,277,5.0,12.0,41,0.00,,,0.00,147.000000,,2013-01-23 19:03:00,
2013-01-23 14:13:00,26.0,6.0,-100.00,West,277,5.0,12.0,41,0.00,,,0.00,147.000000,,2013-01-23 19:13:00,
2013-01-23 14:43:00,26.0,8.0,-100.00,WNW,287,4.0,12.0,46,0.00,,,0.00,99.000000,,2013-01-23 19:43:00,
2013-01-23 14:53:00,26.0,8.0,-100.00,WNW,287,4.0,12.0,46,0.00,,,0.00,99.000000,,2013-01-23 19:53:00,
2013-01-23 15:03:00,26.0,8.0,-100.00,WNW,287,4.0,12.0,46,0.00,,,0.00,99.000000,,2013-01-23 20:03:00,
2013-01-23 15:13:00,26.0,8.0,-100.00,WNW,287,4.0,12.0,46,0.00,,,0.00,99.000000,,2013-01-23 20:13:00,
2013-01-23 15:43:00,29.0,10.0,-100.00,WSW,255,2.0,5.0,44,0.00,,,0.00,85.000000,,2013-01-23 20:43:00,
2013-01-23 15:54:00,29.0,10.0,-100.00,WSW,255,2.0,5.0,44,0.00,,,0.00,85.000000,,2013-01-23 20:54:00,
2013-01-23 16:03:00,29.0,10.0,-100.00,WSW,255,2.0,5.0,44,0.00,,,0.00,85.000000,,2013-01-23 21:03:00,
2013-01-23 16:12:00,29.0,10.0,-100.00,WSW,255,2.0,5.0,44,0.00,,,0.00,85.000000,,2013-01-23 21:12:00,
2013-01-23 16:43:00,30.0,10.0,-100.00,SE,139,1.0,5.0,42,0.00,,,0.00,82.000000,,2013-01-23 21:43:00,
2013-01-23 16:53:00,30.0,10.0,-100.00,SE,139,1.0,5.0,42,0.00,,,0.00,82.000000,,2013-01-23 21:53:00,
2013-01-23 17:03:00,30.0,10.0,-100.00,SE,139,1.0,5.0,42,0.00,,,0.00,82.000000,,2013-01-23 22:03:00,
2013-01-23 17:13:00,30.0,10.0,-100.00,SE,139,1.0,5.0,42,0.00,,,0.00,82.000000,,2013-01-23 22:13:00,
2013-01-23 18:03:00,29.0,11.0,-100.00,NNE,31,2.0,5.0,47,0.00,,,0.00,39.000000,,2013-01-23 23:03:00,
2013-01-23 18:13:00,29.0,11.0,-100.00,NNE,31,2.0,5.0,47,0.00,,,0.00,39.000000,,2013-01-23 23:13:00,
2013-01-23 18:43:00,27.0,11.0,-100.00,SE,125,1.0,4.0,50,0.00,,,0.00,7.000000,,2013-01-23 23:43:00,
2013-01-23 18:53:00,27.0,11.0,-100.00,SE,125,1.0,4.0,50,0.00,,,0.00,7.000000,,2013-01-23 23:53:00,
2013-01-23 19:03:00,27.0,11.0,-100.00,SE,125,1.0,4.0,50,0.00,,,0.00,7.000000,,2013-01-24 00:03:00,
2013-01-23 19:12:00,27.0,11.0,-100.00,SE,125,1.0,4.0,50,0.00,,,0.00,7.000000,,2013-01-24 00:12:00,
2013-01-23 19:33:00,25.0,15.0,-100.00,ESE,113,1.0,3.0,65,0.00,,,0.00,0.000000,,2013-01-24 00:33:00,
2013-01-23 19:43:00,25.0,15.0,-100.00,ESE,113,1.0,3.0,65,0.00,,,0.00,0.000000,,2013-01-24 00:43:00,
2013-01-23 19:53:00,25.0,15.0,-100.00,ESE,113,1.0,3.0,65,0.00,,,0.00,0.000000,,2013-01-24 00:53:00,
2013-01-23 20:03:00,25.0,15.0,-100.00,ESE,113,1.0,3.0,65,0.00,,,0.00,0.000000,,2013-01-24 01:03:00,
2013-01-23 20:12:00,25.0,15.0,-100.00,ESE,113,1.0,3.0,65,0.00,,,0.00,0.000000,,2013-01-24 01:12:00,
2013-01-23 20:43:00,25.0,15.0,-100.00,ENE,75,1.0,4.0,65,0.00,,,0.00,0.000000,,2013-01-24 01:43:00,
2013-01-23 20:53:00,25.0,15.0,-100.00,ENE,75,1.0,4.0,65,0.00,,,0.00,0.000000,,2013-01-24 01:53:00,
2013-01-23 21:03:00,25.0,15.0,-100.00,ENE,75,1.0,4.0,65,0.00,,,0.00,0.000000,,2013-01-24 02:03:00,
2013-01-23 21:12:00,25.0,15.0,-100.00,ENE,75,1.0,4.0,65,0.00,,,0.00,0.000000,,2013-01-24 02:12:00,
2013-01-23 21:33:00,26.0,16.0,-100.00,NE,55,2.0,4.0,65,0.00,,,0.00,0.000000,,2013-01-24 02:33:00,
2013-01-23 21:43:00,26.0,16.0,-100.00,NE,55,2.0,4.0,65,0.00,,,0.00,0.000000,,2013-01-24 02:43:00,
2013-01-23 21:53:00,26.0,16.0,-100.00,NE,55,2.0,4.0,65,0.00,,,0.00,0.000000,,2013-01-24 02:53:00,
2013-01-23 22:03:00,26.0,16.0,-100.00,NE,55,2.0,4.0,65,0.00,,,0.00,0.000000,,2013-01-24 03:03:00,
2013-01-23 22:12:00,26.0,16.0,-100.00,NE,55,2.0,4.0,65,0.00,,,0.00,0.000000,,2013-01-24 03:12:00,
2013-01-23 22:43:00,31.0,20.0,-100.00,SW,217,2.0,7.0,64,0.00,,,0.00,0.000000,,2013-01-24 03:43:00,
2013-01-23 22:53:00,31.0,20.0,-100.00,SW,217,2.0,7.0,64,0.00,,,0.00,0.000000,,2013-01-24 03:53:00,
2013-01-23 23:03:00,31.0,20.0,-100.00,SW,217,2.0,7.0,64,0.00,,,0.00,0.000000,,2013-01-24 04:03:00,
2013-01-23 23:12:00,31.0,20.0,-100.00,SW,217,2.0,7.0,64,0.00,,,0.00,0.000000,,2013-01-24 04:12:00,
2013-01-23 23:43:00,35.0,24.0,-100.00,SW,226,3.0,6.0,64,0.00,,,0.00,0.000000,,2013-01-24 04:43:00,
2013-01-23 23:53:00,35.0,24.0,-100.00,SW,226,3.0,6.0,64,0.00,,,0.00,0.000000,,2013-01-24 04:53:00,